Latest Weather Observations for Toolara

IDQ60801

Issued at 1:02 pm EST Sunday 21 December 2014 (issued every 30 minutes, with the page automatically refreshed every 10 minutes)

About weather observations | Map of weather stations | Latest weather observations for QLD | Other Formats
Station Details ID: 040555 Name: TOOLARA (KELLY) Lat: -25.97 Lon: 152.86 Height: 143.0 m
Data from the previous 72 hours. | See also: Recent months at Toolara
Date/Time
EST
Temp
°C
App
Temp
°C
Dew
Point
Rel
Hum
%
Delta-T
°C
Wind Press
QNH
hPa
Press
MSL
hPa
Rain
since 9 am
mm
Dir
 
Spd
km/h
Gust
km/h
Spd
kts
Gust
kts
21/01:00pm 29.3 29.9 18.7 52 6.9 - 13 17 7 9 - - -
21/12:30pm 28.3 29.8 19.8 60 5.6 - 11 15 6 8 - - -
21/12:00pm 25.1 - 17.3 62 4.9 - - - - - - - -
21/11:30am 27.6 - 16.9 52 6.7 - - - - - - - -
21/11:00am 30.1 - 19.2 52 7.1 - - - - - - - -
21/10:30am 27.2 - 17.9 56 5.9 - - - - - - - -
21/10:00am 29.8 - 19.2 53 6.9 - - - - - - - -
21/09:30am 26.0 - 16.8 57 5.7 - - - - - - - -
21/09:00am 27.9 - 18.6 57 6.0 - - - - - - - 0.0
21/08:30am 27.6 - 20.2 64 4.9 - - - - - - - -
21/08:00am 25.9 - 19.3 67 4.3 - - - - - - - -
21/07:30am 25.0 - 19.8 73 3.4 - - - - - - - -
21/07:00am 24.1 - 19.6 76 2.9 - - - - - - - -
21/06:30am 22.3 - 19.1 82 2.0 - - - - - - - -
21/06:00am 20.9 22.1 18.3 85 1.6 - 9 13 5 7 - - -
21/05:30am 21.1 - 18.5 85 1.6 - - - - - - - -
21/05:00am 20.9 - 18.5 86 1.5 - - - - - - - -
21/04:30am 20.9 - 18.5 86 1.5 - - - - - - - -
21/04:00am 21.2 - 18.9 87 1.5 - - - - - - - -
21/03:30am 21.2 - 18.9 87 1.5 - - - - - - - -
21/03:00am 21.4 - 19.1 87 1.5 - - - - - - - 0.0
21/02:30am 21.4 - 19.1 87 1.5 - - - - - - - -
21/02:00am 21.4 - 19.1 87 1.5 - - - - - - - -
21/01:30am 21.6 - 19.2 86 1.5 - - - - - - - -
21/01:00am 21.8 - 19.4 86 1.5 - - - - - - - -
21/12:30am 22.1 - 19.5 85 1.7 - - - - - - - -
21/12:00am 22.3 23.0 19.7 85 1.7 - 15 17 8 9 - - -
 
Date/Time
EST
Temp
°C
App
Temp
°C
Dew
Point
Rel
Hum
%
Delta-T
°C
Wind Press
QNH
hPa
Press
MSL
hPa
Rain
since 9 am
mm
Dir
 
Spd
km/h
Gust
km/h
Spd
kts
Gust
kts
20/11:30pm 22.5 - 19.9 85 1.7 - - - - - - - -
20/11:00pm 22.6 - 19.8 84 1.8 - - - - - - - -
20/10:30pm 22.6 - 19.9 85 1.7 - - - - - - - -
20/10:00pm 22.6 - 20.1 86 1.6 - - - - - - - -
20/09:30pm 22.4 - 20.1 87 1.5 - - - - - - - -
20/09:00pm 23.0 - 20.1 84 1.9 - - - - - - - 0.0
20/08:30pm 22.7 - 19.9 84 1.8 - - - - - - - -
20/08:00pm 22.7 24.2 19.7 83 1.9 - 11 13 6 7 - - -
20/07:30pm 23.0 - 19.6 81 2.2 - - - - - - - -
20/07:00pm 23.5 - 19.6 79 2.5 - - - - - - - -
20/06:30pm 23.7 - 19.4 77 2.8 - - - - - - - -
20/06:00pm 24.3 25.3 19.4 74 3.2 - 13 17 7 9 - - -
20/05:30pm 24.7 - 19.3 72 3.5 - - - - - - - -
20/05:00pm 25.7 - 19.3 67 4.1 - - - - - - - -
20/04:30pm 26.6 - 20.0 67 4.3 - - - - - - - -
20/04:00pm 27.1 - 19.4 62 5.0 - - - - - - - -
20/03:30pm 27.5 - 19.8 63 5.0 - - - - - - - -
20/03:00pm 27.0 - 18.8 60 5.3 - - - - - - - 0.0
20/02:30pm 29.4 - 20.3 58 6.0 - - - - - - - -
20/02:00pm 28.4 - 19.6 59 5.8 - - - - - - - -
20/01:30pm 28.6 - 19.5 58 6.0 - - - - - - - -
20/01:00pm 30.0 - 21.4 60 5.8 - - - - - - - -
20/12:30pm 30.0 - 21.1 59 6.0 - - - - - - - -
20/12:00pm 29.4 - 21.1 61 5.6 - - - - - - - -
20/11:30am 29.8 - 21.2 60 5.8 - - - - - - - -
20/11:00am 29.2 - 20.9 61 5.5 - - - - - - - -
20/10:30am 29.3 - 21.3 62 5.4 - - - - - - - -
20/10:00am 27.6 - 20.4 65 4.8 - - - - - - - -
20/09:30am 28.3 - 21.3 65 4.7 - - - - - - - -
20/09:00am 27.6 - 20.9 67 4.5 - - - - - - - 0.0
20/08:30am 27.8 - 21.8 70 4.0 - - - - - - - -
20/08:00am 25.3 - 21.2 78 2.7 - - - - - - - -
20/07:30am 25.6 - 22.9 85 1.8 - - - - - - - -
20/07:00am 23.8 - 22.6 93 0.8 - - - - - - - -
20/06:30am 22.2 - 22.2 100 0.0 - - - - - - - -
20/06:00am 21.3 - 21.3 100 0.0 - - - - - - - -
20/05:30am 20.9 - 20.9 100 0.0 - - - - - - - -
20/05:00am 20.7 - 20.7 100 0.0 - - - - - - - -
20/04:30am 20.8 - 20.8 100 0.0 - - - - - - - -
20/04:00am 20.9 - 20.9 100 0.0 - - - - - - - -
20/03:30am 21.0 - 21.0 100 0.0 - - - - - - - -
20/03:00am 21.0 - 21.0 100 0.0 - - - - - - - 0.0
20/02:30am 21.1 - 21.1 100 0.0 - - - - - - - -
20/02:00am 21.2 - 21.0 99 0.1 - - - - - - - -
20/01:30am 21.6 - 21.3 98 0.2 - - - - - - - -
20/01:00am 21.7 - 20.9 95 0.5 - - - - - - - -
20/12:30am 21.4 - 20.6 95 0.5 - - - - - - - -
20/12:00am 21.7 - 20.3 92 0.9 - - - - - - - -
 
Date/Time
EST
Temp
°C
App
Temp
°C
Dew
Point
Rel
Hum
%
Delta-T
°C
Wind Press
QNH
hPa
Press
MSL
hPa
Rain
since 9 am
mm
Dir
 
Spd
km/h
Gust
km/h
Spd
kts
Gust
kts
19/11:30pm 21.6 - 19.7 89 1.2 - - - - - - - -
19/11:00pm 22.5 - 19.9 85 1.7 - - - - - - - -
19/10:30pm 22.9 - 20.2 85 1.8 - - - - - - - -
19/10:00pm 22.7 - 21.0 90 1.1 - - - - - - - -
19/09:30pm 22.8 - 21.3 91 1.0 - - - - - - - -
19/09:00pm 23.1 - 22.1 94 0.7 - - - - - - - 0.0
19/08:30pm 23.1 - 21.7 92 0.9 - - - - - - - -
19/08:00pm 23.6 - 21.3 87 1.5 - - - - - - - -
19/07:30pm 23.9 - 21.0 84 1.9 - - - - - - - -
19/07:00pm 24.5 - 20.8 80 2.4 - - - - - - - -
19/06:30pm 25.3 - 20.5 75 3.2 - - - - - - - -
19/06:00pm 26.6 - 20.2 68 4.2 - - - - - - - -
19/05:30pm 27.8 - 19.3 60 5.5 - - - - - - - -
19/05:00pm 29.3 - 17.2 48 7.7 - - - - - - - -
19/04:30pm 30.2 - 17.3 46 8.2 - - - - - - - -
19/04:00pm 30.7 - 17.0 43 8.7 - - - - - - - -
19/03:30pm 31.4 - 18.4 46 8.4 - - - - - - - -
19/03:00pm 32.3 - 19.9 48 8.2 - - - - - - - 0.0
19/02:30pm 31.9 - 21.4 53 7.1 - - - - - - - -
19/02:00pm 31.5 - 22.2 57 6.4 - - - - - - - -
19/01:30pm 30.2 - 21.6 60 5.8 - - - - - - - -
19/01:00pm 29.4 - 21.9 64 5.1 - - - - - - - -
19/12:30pm 27.7 - 21.7 70 4.0 - - - - - - - -
19/12:00pm 26.9 - 22.9 79 2.7 - - - - - - - -
19/11:30am 26.0 - 22.9 83 2.1 - - - - - - - -
19/11:00am 24.3 - 23.4 95 0.6 - - - - - - - -
19/10:30am 22.5 - 22.5 100 0.0 - - - - - - - -
19/10:00am 21.4 - 21.4 100 0.0 - - - - - - - -
19/09:30am 21.2 - 21.2 100 0.0 - - - - - - - -
19/09:00am 20.5 - 20.5 100 0.0 - - - - - - - 34.0
19/08:30am 20.8 - 20.8 100 0.0 - - - - - - - -
19/08:00am 20.4 - 20.4 100 0.0 - - - - - - - -
19/07:30am 20.4 - 20.4 100 0.0 - - - - - - - -
19/07:00am 19.9 - 19.9 100 0.0 - - - - - - - -
19/06:30am 19.9 - 19.9 100 0.0 - - - - - - - -
19/06:00am 19.8 - 19.8 100 0.0 - - - - - - - -
19/05:30am 19.8 - 19.8 100 0.0 - - - - - - - -
19/05:00am 19.6 - 19.6 100 0.0 - - - - - - - -
19/04:30am 19.7 - 19.7 100 0.0 - - - - - - - -
19/04:00am 19.7 - 19.7 100 0.0 - - - - - - - -
19/03:30am 19.7 - 19.7 100 0.0 - - - - - - - -
19/03:00am 19.8 - 19.8 100 0.0 - - - - - - - 30.0
19/02:30am 20.2 - 20.2 100 0.0 - - - - - - - -
19/02:00am 20.7 - 20.7 100 0.0 - - - - - - - -
19/01:30am 21.2 - 21.2 100 0.0 - - - - - - - -
19/01:00am 21.6 - 21.6 100 0.0 - - - - - - - -
19/12:30am 21.8 - 21.8 100 0.0 - - - - - - - -
19/12:00am 21.9 - 21.9 100 0.0 - - - - - - - -
 
Date/Time
EST
Temp
°C
App
Temp
°C
Dew
Point
Rel
Hum
%
Delta-T
°C
Wind Press
QNH
hPa
Press
MSL
hPa
Rain
since 9 am
mm
Dir
 
Spd
km/h
Gust
km/h
Spd
kts
Gust
kts
18/11:30pm 21.9 - 21.9 100 0.0 - - - - - - - -
18/11:00pm 21.8 - 21.3 97 0.3 - - - - - - - -
18/10:30pm 22.1 - 21.1 94 0.7 - - - - - - - -
18/10:00pm 22.3 - 20.0 87 1.5 - - - - - - - -
18/09:30pm 24.0 - 19.9 78 2.7 - - - - - - - -
18/09:00pm 24.3 - 19.8 76 2.9 - - - - - - - 0.0
18/08:30pm 24.6 - 19.4 73 3.4 - - - - - - - -
18/08:00pm 25.4 - 19.8 71 3.6 - - - - - - - -
18/07:30pm 25.5 - 20.1 72 3.5 - - - - - - - -
18/07:00pm 25.4 - 19.5 70 3.8 - - - - - - - -
18/06:30pm 25.6 - 19.5 69 4.0 - - - - - - - -
18/06:00pm 26.0 - 19.2 66 4.4 - - - - - - - -
18/05:30pm 26.6 - 19.7 66 4.5 - - - - - - - -
18/05:00pm 27.3 - 19.4 62 5.1 - - - - - - - -
18/04:30pm 28.0 - 19.2 58 5.7 - - - - - - - -
18/04:00pm 28.6 - 19.0 56 6.2 - - - - - - - -
18/03:30pm 29.5 - 19.5 55 6.6 - - - - - - - -
18/03:00pm 30.5 - 19.2 51 7.4 - - - - - - - 0.2
18/02:30pm 31.8 - 19.8 49 8.0 - - - - - - - -
18/02:00pm 32.5 - 19.4 46 8.7 - - - - - - - -
18/01:30pm 33.2 - 20.4 47 8.6 - - - - - - - -

Other Formats:

Comma delimited format used in spreadsheet applications
http://www.bom.gov.au/fwo/IDQ60801/IDQ60801.94558.axf

JavaScript Object Notation format (JSON) in row-major order
http://www.bom.gov.au/fwo/IDQ60801/IDQ60801.94558.json